Time;durP1;ratioP1;P1;durP2;ratioP2;P2;SDS_P1;SDS_P2;PMS_P1;PMS_P2;Temp;Humidity;BMP_temperature;BMP_pressure;BME280_temperature;BME280_humidity;BME280_pressure;Samples;Min_cycle;Max_cycle;Signal;HPM_P1;HPM_P2
2022/09/26 00:00:45;;;;;;;3.42;0.98;;;11.90;99.90;;;;;;5053565;28;20028;-52
2022/09/26 00:03:10;;;;;;;3.50;1.42;;;11.90;99.90;;;;;;5053176;28;20025;-45
2022/09/26 00:05:37;;;;;;;2.72;1.05;;;11.90;99.90;;;;;;5053381;28;20696;-49
2022/09/26 00:08:04;;;;;;;2.15;1.00;;;11.90;99.90;;;;;;5053102;28;20392;-49
2022/09/26 00:10:30;;;;;;;5.25;1.50;;;11.90;99.90;;;;;;5053412;28;20047;-52
2022/09/26 00:12:55;;;;;;;3.45;0.98;;;11.90;99.90;;;;;;5051699;28;20531;-46
2022/09/26 00:15:22;;;;;;;3.67;1.10;;;11.90;99.90;;;;;;5053041;28;20520;-54
2022/09/26 00:17:48;;;;;;;1.75;1.15;;;11.90;99.90;;;;;;5053214;28;20100;-49
2022/09/26 00:20:13;;;;;;;2.90;0.98;;;12.00;99.90;;;;;;5052813;28;20111;-49
2022/09/26 00:22:40;;;;;;;3.33;1.13;;;12.00;99.90;;;;;;5052846;28;20040;-45
2022/09/26 00:25:07;;;;;;;4.65;1.65;;;12.00;99.90;;;;;;5052835;28;20025;-49
2022/09/26 00:27:32;;;;;;;5.38;1.25;;;12.00;99.90;;;;;;5052817;28;20083;-45
2022/09/26 00:29:58;;;;;;;3.67;1.20;;;12.00;99.90;;;;;;5052792;28;20100;-56
2022/09/26 00:32:24;;;;;;;2.70;1.30;;;12.00;99.90;;;;;;5052906;28;20365;-47
2022/09/26 00:34:49;;;;;;;4.82;1.20;;;12.00;99.90;;;;;;5052642;28;20067;-47
2022/09/26 00:37:16;;;;;;;2.78;1.00;;;12.00;99.90;;;;;;5052554;28;20028;-47
2022/09/26 00:39:41;;;;;;;7.10;1.38;;;12.00;99.90;;;;;;5052780;28;20029;-49
2022/09/26 00:42:13;;;;;;;5.75;1.27;;;12.00;99.90;;;;;;5052326;28;20017;-51
2022/09/26 00:44:49;;;;;;;6.65;2.03;;;12.00;99.90;;;;;;5051821;28;20021;-45
2022/09/26 00:47:41;;;;;;;2.42;1.08;;;12.00;99.90;;;;;;5052267;28;20033;-48
2022/09/26 00:50:13;;;;;;;6.22;1.50;;;12.00;99.90;;;;;;5041224;28;20044;-56
2022/09/26 00:52:45;;;;;;;3.95;1.20;;;12.00;99.90;;;;;;5052340;28;20406;-50
2022/09/26 00:55:13;;;;;;;4.57;1.30;;;12.00;99.90;;;;;;5052296;28;20082;-46
2022/09/26 00:57:47;;;;;;;2.30;1.20;;;12.00;99.90;;;;;;5052239;28;20025;-48
2022/09/26 01:00:14;;;;;;;3.15;1.05;;;12.00;99.90;;;;;;5052505;28;20028;-45
2022/09/26 01:02:42;;;;;;;2.38;1.25;;;12.00;99.90;;;;;;5052289;28;20376;-44
2022/09/26 01:05:11;;;;;;;5.93;1.35;;;12.00;99.90;;;;;;5052335;28;20035;-48
2022/09/26 01:07:37;;;;;;;2.35;1.15;;;12.10;99.90;;;;;;5051011;28;20025;-45
2022/09/26 01:10:04;;;;;;;3.00;1.15;;;12.10;99.90;;;;;;5052019;28;20031;-46
2022/09/26 01:12:31;;;;;;;5.63;1.60;;;12.00;99.90;;;;;;5051935;28;20044;-47
2022/09/26 01:14:57;;;;;;;3.00;1.30;;;12.00;99.90;;;;;;5051922;28;20032;-53
2022/09/26 01:17:23;;;;;;;4.85;1.23;;;12.00;99.90;;;;;;5052118;28;20060;-47
2022/09/26 01:20:06;;;;;;;3.97;1.20;;;12.00;99.90;;;;;;5051924;28;20055;-47
2022/09/26 01:22:53;;;;;;;4.22;1.50;;;12.00;99.90;;;;;;5051890;28;20067;-44
2022/09/26 01:25:37;;;;;;;3.75;1.08;;;12.00;99.90;;;;;;5051434;28;20025;-44
2022/09/26 01:28:27;;;;;;;2.63;1.05;;;12.00;99.90;;;;;;5051859;28;20028;-50
2022/09/26 01:31:04;;;;;;;9.98;1.52;;;12.00;99.90;;;;;;5040036;28;20118;-46
2022/09/26 01:33:40;;;;;;;3.55;1.00;;;12.40;99.90;;;;;;5051703;28;20017;-49
2022/09/26 01:36:44;;;;;;;5.25;1.30;;;12.10;99.90;;;;;;5051614;28;20025;-52
2022/09/26 01:40:06;;;;;;;7.10;1.42;;;12.20;99.90;;;;;;4989914;28;20041;-48
2022/09/26 01:42:54;;;;;;;2.42;1.20;;;12.20;99.90;;;;;;4950109;29;20398;-47
2022/09/26 01:45:28;;;;;;;3.17;1.17;;;12.20;99.90;;;;;;4950651;29;20530;-50
2022/09/26 01:48:17;;;;;;;5.30;1.77;;;12.30;99.90;;;;;;5031435;28;20488;-51
2022/09/26 01:51:10;;;;;;;4.95;1.45;;;12.30;99.90;;;;;;5051251;28;20056;-45
2022/09/26 01:53:42;;;;;;;4.85;1.10;;;12.40;99.90;;;;;;5032426;28;20495;-48
2022/09/26 01:56:14;;;;;;;4.97;1.33;;;12.40;99.90;;;;;;5050958;28;20049;-45
2022/09/26 01:58:55;;;;;;;5.38;1.50;;;12.40;99.90;;;;;;5051495;28;20087;-48
2022/09/26 02:01:23;;;;;;;3.10;1.20;;;12.50;99.90;;;;;;5051032;28;20021;-49
2022/09/26 02:03:53;;;;;;;7.45;1.45;;;12.50;99.90;;;;;;5051207;28;20036;-48
2022/09/26 02:06:43;;;;;;;4.63;1.42;;;12.50;99.90;;;;;;5050919;28;20033;-45
2022/09/26 02:09:15;;;;;;;8.35;1.45;;;12.60;99.90;;;;;;5040086;28;20392;-51
2022/09/26 02:11:46;;;;;;;6.40;1.27;;;12.70;99.90;;;;;;5050553;28;20391;-48
2022/09/26 02:14:20;;;;;;;5.47;1.40;;;12.70;99.90;;;;;;5051047;28;20103;-49
2022/09/26 02:16:52;;;;;;;4.63;1.30;;;12.70;99.90;;;;;;5050662;28;20104;-49
2022/09/26 02:19:24;;;;;;;4.63;1.27;;;12.80;99.90;;;;;;5051044;28;20033;-50
2022/09/26 02:21:50;;;;;;;4.30;1.30;;;12.80;99.90;;;;;;5050708;28;20473;-46
2022/09/26 02:24:15;;;;;;;3.22;1.17;;;12.80;99.90;;;;;;5050948;28;20039;-44
2022/09/26 02:26:41;;;;;;;4.28;1.10;;;12.90;99.90;;;;;;5050806;28;20096;-51
2022/09/26 02:29:08;;;;;;;3.80;1.27;;;12.90;99.90;;;;;;5050943;28;20104;-49
2022/09/26 02:31:40;;;;;;;4.82;1.17;;;12.90;99.90;;;;;;5050665;28;20025;-47
2022/09/26 02:34:06;;;;;;;3.40;1.10;;;12.90;99.90;;;;;;5049545;28;20432;-47
2022/09/26 02:36:33;;;;;;;3.22;1.10;;;12.90;99.90;;;;;;5051899;28;20033;-48
2022/09/26 02:39:00;;;;;;;4.88;1.30;;;12.90;99.90;;;;;;5054379;28;20595;-44
2022/09/26 02:41:27;;;;;;;3.20;1.20;;;13.00;99.90;;;;;;5054463;28;20393;-51
2022/09/26 02:44:39;;;;;;;3.65;1.50;;;12.90;99.90;;;;;;5041230;28;20013;-45
2022/09/26 02:47:08;;;;;;;4.47;1.00;;;13.00;99.90;;;;;;5033573;28;20041;-45
2022/09/26 02:49:48;;;;;;;4.97;1.40;;;13.00;99.90;;;;;;5054765;28;20119;-46
2022/09/26 02:52:43;;;;;;;7.50;1.42;;;13.00;99.90;;;;;;5054434;28;20418;-44
2022/09/26 02:55:23;;;;;;;7.32;1.60;;;13.00;99.90;;;;;;5054451;28;20484;-44
2022/09/26 02:58:17;;;;;;;4.68;1.25;;;13.00;99.90;;;;;;5054711;28;20018;-54
2022/09/26 03:01:19;;;;;;;3.67;1.02;;;13.00;99.90;;;;;;5054357;28;20029;-44
2022/09/26 03:04:05;;;;;;;5.85;1.38;;;13.10;99.90;;;;;;5014080;28;20034;-46
2022/09/26 03:06:42;;;;;;;3.60;1.23;;;13.10;99.90;;;;;;5054494;28;20087;-45
2022/09/26 03:09:09;;;;;;;5.70;0.90;;;13.10;99.90;;;;;;5053851;28;20476;-44
2022/09/26 03:11:35;;;;;;;2.58;0.85;;;13.10;99.90;;;;;;5053855;28;20028;-48
2022/09/26 03:14:02;;;;;;;7.63;1.30;;;13.10;99.90;;;;;;5053994;28;20415;-46
2022/09/26 03:16:32;;;;;;;2.72;0.85;;;13.10;99.90;;;;;;5054286;28;20037;-47
2022/09/26 03:19:08;;;;;;;3.55;1.00;;;13.10;99.90;;;;;;5054122;28;20476;-45
2022/09/26 03:21:34;;;;;;;5.57;1.50;;;13.10;99.90;;;;;;5054135;28;20484;-52
2022/09/26 03:24:00;;;;;;;6.38;1.30;;;13.10;99.90;;;;;;5052935;28;20079;-44
2022/09/26 03:26:27;;;;;;;4.18;1.42;;;13.10;99.90;;;;;;5053911;28;20013;-44
2022/09/26 03:28:55;;;;;;;4.30;1.20;;;13.10;99.90;;;;;;5054114;28;20029;-48
2022/09/26 03:31:21;;;;;;;3.05;1.15;;;13.10;99.90;;;;;;5053909;28;20025;-45
2022/09/26 03:33:47;;;;;;;4.85;1.23;;;13.10;99.90;;;;;;5053835;28;20040;-46
2022/09/26 03:36:13;;;;;;;4.63;1.50;;;13.10;99.90;;;;;;5053744;28;20127;-46
2022/09/26 03:38:39;;;;;;;5.03;1.42;;;13.10;99.90;;;;;;5053644;28;20077;-44
2022/09/26 03:41:06;;;;;;;7.78;1.27;;;13.10;99.90;;;;;;5053836;28;20119;-44
2022/09/26 03:43:32;;;;;;;6.55;1.70;;;13.00;99.90;;;;;;5053521;28;20447;-44
2022/09/26 03:46:05;;;;;;;5.22;1.40;;;13.00;99.90;;;;;;5053802;28;20048;-47
2022/09/26 03:48:31;;;;;;;4.90;1.10;;;13.10;99.90;;;;;;5053245;28;20098;-49
2022/09/26 03:51:05;;;;;;;6.72;1.40;;;13.00;99.90;;;;;;5053399;28;20454;-53
2022/09/26 03:53:35;;;;;;;4.72;1.17;;;13.10;99.90;;;;;;5053499;28;20104;-45
2022/09/26 03:56:05;;;;;;;5.90;2.03;;;13.10;99.90;;;;;;5053506;28;20048;-44
2022/09/26 03:58:31;;;;;;;;;;;13.10;99.90;;;;;;5053728;28;20025;-44
2022/09/26 04:01:08;;;;;;;9.60;1.25;;;13.20;99.90;;;;;;5052136;28;19904;-50
2022/09/26 04:03:36;;;;;;;10.65;1.90;;;13.30;99.90;;;;;;5053480;28;20032;-45
2022/09/26 04:06:02;;;;;;;7.32;1.40;;;13.30;99.90;;;;;;5052162;28;20036;-44
2022/09/26 04:08:28;;;;;;;4.57;1.15;;;13.30;99.90;;;;;;5052880;28;20132;-47
2022/09/26 04:11:06;;;;;;;6.43;1.38;;;13.40;99.90;;;;;;5052843;28;20104;-47
2022/09/26 04:13:32;;;;;;;4.55;1.10;;;13.40;99.90;;;;;;5047504;28;20032;-52
2022/09/26 04:15:58;;;;;;;4.10;1.42;;;13.50;99.90;;;;;;5052999;28;20028;-44
2022/09/26 04:18:24;;;;;;;3.03;1.15;;;13.50;99.90;;;;;;5053130;28;20032;-52
2022/09/26 04:20:59;;;;;;;2.47;1.15;;;13.60;99.90;;;;;;5053039;28;20074;-45
2022/09/26 04:23:30;;;;;;;4.05;1.00;;;13.60;99.90;;;;;;5052991;28;20494;-48
2022/09/26 04:26:04;;;;;;;5.13;1.20;;;13.70;99.90;;;;;;5052684;28;20143;-47
2022/09/26 04:28:31;;;;;;;5.40;1.23;;;13.70;99.90;;;;;;5053000;28;20104;-46
2022/09/26 04:30:58;;;;;;;3.58;1.00;;;13.70;99.90;;;;;;5052918;28;20033;-47
2022/09/26 04:33:24;;;;;;;4.60;1.10;;;13.70;99.90;;;;;;5052908;28;20411;-45
2022/09/26 04:35:50;;;;;;;5.47;1.23;;;13.60;99.90;;;;;;5052725;28;20095;-48
2022/09/26 04:38:17;;;;;;;7.63;1.20;;;13.60;99.90;;;;;;5052471;28;20021;-47
2022/09/26 04:40:43;;;;;;;3.92;1.00;;;13.60;99.90;;;;;;5052528;28;20033;-47
2022/09/26 04:43:08;;;;;;;6.70;1.05;;;13.60;99.90;;;;;;5052462;28;20090;-44
2022/09/26 04:45:34;;;;;;;4.80;1.00;;;13.60;99.90;;;;;;5052560;28;20065;-50
2022/09/26 04:48:00;;;;;;;6.72;1.60;;;13.50;99.90;;;;;;5052327;28;20036;-47
2022/09/26 04:50:26;;;;;;;3.58;1.00;;;13.40;99.90;;;;;;5052475;28;20048;-44
2022/09/26 04:52:51;;;;;;;5.13;1.10;;;13.40;99.90;;;;;;5052464;28;20021;-44
2022/09/26 04:55:17;;;;;;;2.75;1.05;;;13.40;99.90;;;;;;5052249;28;20036;-51
2022/09/26 04:57:42;;;;;;;5.85;1.20;;;13.40;99.90;;;;;;5052524;28;20025;-49
2022/09/26 05:00:10;;;;;;;5.82;1.10;;;13.30;99.90;;;;;;5051487;28;20104;-50
2022/09/26 05:02:35;;;;;;;4.70;1.25;;;13.30;99.90;;;;;;5052255;28;20475;-51
2022/09/26 05:05:02;;;;;;;4.88;1.20;;;13.20;99.90;;;;;;5051853;28;20073;-50
2022/09/26 05:07:28;;;;;;;4.18;1.20;;;13.20;99.90;;;;;;5051989;28;20033;-56
2022/09/26 05:09:54;;;;;;;4.20;1.50;;;13.20;99.90;;;;;;5051470;28;20044;-49
2022/09/26 05:12:19;;;;;;;3.33;1.08;;;13.20;99.90;;;;;;5051420;28;20480;-52
2022/09/26 05:14:45;;;;;;;3.80;1.15;;;13.20;99.90;;;;;;5051648;28;20025;-50
2022/09/26 05:17:10;;;;;;;6.43;1.08;;;13.20;99.90;;;;;;5051385;28;20116;-50
2022/09/26 05:19:36;;;;;;;5.00;1.27;;;13.10;99.90;;;;;;5051668;28;20100;-44
2022/09/26 05:22:02;;;;;;;4.63;1.20;;;13.10;99.90;;;;;;5051609;28;20033;-44
2022/09/26 05:27:13;;;;;;;5.00;1.33;;;13.10;99.90;;;;;;5051594;28;20040;-44
2022/09/26 05:29:38;;;;;;;3.53;1.40;;;13.10;99.90;;;;;;5051731;28;20017;-55
2022/09/26 05:32:04;;;;;;;4.50;1.30;;;13.10;99.90;;;;;;5051611;28;20025;-48
2022/09/26 05:34:30;;;;;;;3.38;0.90;;;13.10;99.90;;;;;;5051296;28;20035;-48
2022/09/26 05:36:55;;;;;;;4.38;1.23;;;13.10;99.90;;;;;;5051455;28;20384;-51
2022/09/26 05:42:06;;;;;;;4.35;1.05;;;13.10;99.90;;;;;;5051868;28;20035;-45
2022/09/26 05:44:32;;;;;;;2.85;1.00;;;13.10;99.90;;;;;;5051706;28;20056;-47
2022/09/26 05:46:58;;;;;;;2.58;0.68;;;13.10;99.90;;;;;;5051069;28;20048;-44
2022/09/26 05:49:24;;;;;;;3.20;0.88;;;13.10;99.90;;;;;;5050815;28;20063;-47
2022/09/26 05:51:52;;;;;;;2.63;0.50;;;13.10;99.90;;;;;;5050695;28;20044;-50
2022/09/26 05:54:17;;;;;;;1.45;0.55;;;13.20;99.90;;;;;;5051256;28;20027;-52
2022/09/26 05:56:43;;;;;;;1.95;0.60;;;13.20;99.90;;;;;;5050226;28;20388;-53
2022/09/26 05:59:09;;;;;;;0.50;0.50;;;13.20;99.90;;;;;;5050757;28;20051;-43
2022/09/26 06:01:34;;;;;;;0.75;0.50;;;13.30;99.90;;;;;;5051012;28;20029;-51
2022/09/26 06:04:01;;;;;;;0.40;0.40;;;13.30;99.90;;;;;;5050779;28;20025;-43
2022/09/26 06:06:28;;;;;;;1.60;0.60;;;13.30;99.90;;;;;;5050833;28;20029;-46
2022/09/26 06:08:54;;;;;;;1.42;0.40;;;13.30;99.90;;;;;;5051114;28;20036;-48
2022/09/26 06:11:23;;;;;;;0.60;0.47;;;13.40;99.90;;;;;;5050100;28;20734;-51
2022/09/26 06:13:49;;;;;;;0.77;0.40;;;13.40;99.90;;;;;;5051064;28;20027;-43
2022/09/26 06:16:18;;;;;;;0.40;0.40;;;13.40;99.90;;;;;;5050309;28;20045;-46
2022/09/26 06:18:45;;;;;;;0.83;0.50;;;13.40;99.90;;;;;;5050430;28;20396;-47
2022/09/26 06:21:12;;;;;;;1.30;0.60;;;13.50;99.90;;;;;;5050216;28;20278;-46
2022/09/26 06:23:38;;;;;;;4.55;1.23;;;13.50;99.90;;;;;;5049759;28;20495;-43
2022/09/26 06:26:09;;;;;;;0.82;0.50;;;13.60;99.90;;;;;;5049920;28;20029;-43
2022/09/26 06:28:35;;;;;;;1.83;0.70;;;13.60;99.90;;;;;;5050281;28;20025;-47
2022/09/26 06:31:08;;;;;;;1.42;0.60;;;13.50;99.90;;;;;;5050166;28;20432;-50
2022/09/26 06:33:34;;;;;;;2.30;0.70;;;13.60;99.90;;;;;;5050789;28;20029;-46
2022/09/26 06:36:01;;;;;;;3.25;0.70;;;13.60;99.90;;;;;;5050390;28;20461;-45
2022/09/26 06:38:27;;;;;;;1.08;0.70;;;13.60;99.90;;;;;;5049611;28;20025;-44
2022/09/26 06:40:53;;;;;;;1.35;0.60;;;13.70;99.90;;;;;;5050157;28;20024;-50
2022/09/26 06:43:19;;;;;;;2.35;0.90;;;13.70;99.90;;;;;;5050305;28;20435;-50
2022/09/26 06:45:47;;;;;;;2.20;0.80;;;13.70;99.90;;;;;;5049684;28;20048;-48
2022/09/26 06:48:14;;;;;;;4.00;1.10;;;13.70;99.90;;;;;;5045917;28;20470;-50
2022/09/26 06:50:39;;;;;;;6.63;1.40;;;13.70;99.90;;;;;;5046299;28;20045;-54
2022/09/26 06:53:05;;;;;;;4.00;1.10;;;13.70;99.90;;;;;;5049725;28;20039;-48
2022/09/26 06:55:31;;;;;;;6.88;1.52;;;13.70;99.90;;;;;;5048392;28;20431;-50
2022/09/26 06:57:57;;;;;;;2.42;1.20;;;13.80;99.90;;;;;;5046387;28;20391;-44
2022/09/26 07:00:24;;;;;;;5.38;1.33;;;13.80;99.90;;;;;;5049630;28;20029;-46
2022/09/26 07:02:51;;;;;;;4.72;1.35;;;13.80;99.90;;;;;;5050360;28;20048;-52
2022/09/26 07:05:17;;;;;;;1.77;1.08;;;13.80;99.90;;;;;;5050304;28;20677;-46
2022/09/26 07:07:45;;;;;;;3.50;1.02;;;13.90;99.90;;;;;;5050112;28;20245;-44
2022/09/26 07:10:12;;;;;;;2.65;1.33;;;13.90;99.90;;;;;;5049940;28;20024;-47
2022/09/26 07:12:39;;;;;;;4.00;1.23;;;13.90;99.90;;;;;;5049711;28;20021;-45
2022/09/26 07:15:06;;;;;;;7.03;1.58;;;13.90;99.90;;;;;;5050388;28;20037;-46
2022/09/26 07:17:32;;;;;;;4.65;1.15;;;14.00;99.90;;;;;;5050251;28;20060;-43
2022/09/26 07:19:58;;;;;;;3.35;1.40;;;14.00;99.90;;;;;;5050232;28;20099;-48
2022/09/26 07:22:23;;;;;;;3.53;1.30;;;14.00;99.90;;;;;;5050868;28;20021;-43
2022/09/26 07:24:49;;;;;;;5.97;1.55;;;14.10;99.90;;;;;;5053725;28;20032;-47
2022/09/26 07:27:16;;;;;;;4.88;1.85;;;14.10;99.90;;;;;;5053496;28;20033;-45
2022/09/26 07:29:44;;;;;;;3.90;1.45;;;14.10;99.90;;;;;;5051299;28;20029;-48
2022/09/26 07:32:10;;;;;;;3.55;1.50;;;14.10;99.90;;;;;;5049381;28;20028;-50
2022/09/26 07:34:36;;;;;;;4.20;1.63;;;14.10;99.90;;;;;;5050393;28;20033;-44
2022/09/26 07:37:01;;;;;;;5.13;2.05;;;14.10;99.90;;;;;;5048525;28;20096;-47
2022/09/26 07:39:27;;;;;;;5.22;1.48;;;14.20;99.90;;;;;;5052271;28;20048;-44
2022/09/26 07:41:53;;;;;;;3.63;1.70;;;14.20;99.90;;;;;;5050857;28;20025;-52
2022/09/26 07:44:18;;;;;;;3.65;1.70;;;14.20;99.90;;;;;;5053856;28;20090;-51
2022/09/26 07:52:13;;;;;;;3.70;1.20;;;14.20;99.90;;;;;;5043804;28;20036;-46
2022/09/26 07:54:40;;;;;;;2.25;1.15;;;14.20;99.90;;;;;;5053124;28;20033;-46
2022/09/26 07:57:06;;;;;;;3.88;1.25;;;14.20;99.90;;;;;;5050268;28;20029;-44
2022/09/26 07:59:35;;;;;;;3.15;1.13;;;14.10;99.90;;;;;;5047437;28;20051;-50
2022/09/26 08:02:02;;;;;;;3.75;1.60;;;14.20;99.90;;;;;;5051372;28;20033;-45
2022/09/26 08:04:28;;;;;;;2.50;1.40;;;14.20;99.90;;;;;;5057343;28;20048;-48
2022/09/26 08:06:55;;;;;;;3.53;1.63;;;14.20;99.90;;;;;;5054609;28;20026;-47
2022/09/26 08:09:21;;;;;;;4.10;1.92;;;14.20;99.90;;;;;;5054286;28;20486;-43
2022/09/26 08:11:47;;;;;;;4.68;2.50;;;14.30;99.90;;;;;;5055308;28;20055;-45
2022/09/26 08:14:13;;;;;;;3.20;1.60;;;14.20;99.90;;;;;;5051304;28;20468;-46
2022/09/26 08:16:40;;;;;;;3.67;1.17;;;14.20;99.90;;;;;;5050727;28;20396;-48
2022/09/26 08:19:07;;;;;;;0.98;0.82;;;14.30;99.90;;;;;;5043081;28;20108;-45
2022/09/26 08:21:34;;;;;;;1.92;0.80;;;14.50;99.90;;;;;;5047040;28;20029;-44
2022/09/26 08:24:00;;;;;;;2.30;0.70;;;14.70;99.90;;;;;;5049257;28;20078;-44
2022/09/26 08:26:26;;;;;;;2.35;0.70;;;15.20;99.90;;;;;;5049158;28;20104;-50
2022/09/26 08:28:52;;;;;;;1.50;0.73;;;16.40;99.90;;;;;;5050285;28;20124;-47
2022/09/26 08:31:18;;;;;;;4.00;0.63;;;18.40;99.90;;;;;;5049601;28;20029;-47
2022/09/26 08:33:44;;;;;;;1.65;0.60;;;20.80;99.90;;;;;;5050354;28;20033;-46
2022/09/26 08:36:11;;;;;;;10.20;4.28;;;22.40;99.90;;;;;;5050926;28;20127;-48
2022/09/26 08:38:37;;;;;;;5.80;2.88;;;23.80;99.90;;;;;;5051229;28;20032;-47
2022/09/26 08:41:43;;;;;;;3.67;0.82;;;24.30;99.90;;;;;;5051131;28;20117;-45
2022/09/26 08:44:29;;;;;;;2.17;0.80;;;24.20;99.90;;;;;;5043973;28;20519;-49
2022/09/26 08:47:00;;;;;;;3.95;0.93;;;24.80;99.40;;;;;;5051884;28;20108;-51
2022/09/26 08:50:08;;;;;;;2.38;0.70;;;25.70;97.60;;;;;;5052494;28;20041;-44
2022/09/26 08:52:37;;;;;;;2.33;0.60;;;24.80;97.60;;;;;;4983662;28;20465;-52
2022/09/26 08:55:16;;;;;;;3.38;1.35;;;25.40;95.50;;;;;;5040809;28;20033;-45
2022/09/26 08:57:42;;;;;;;3.15;1.20;;;26.00;95.10;;;;;;5052252;28;20534;-46
2022/09/26 09:00:12;;;;;;;4.72;1.13;;;26.30;92.60;;;;;;5052408;28;20050;-44
2022/09/26 09:02:45;;;;;;;4.60;1.20;;;25.80;94.00;;;;;;5061818;28;20053;-48
2022/09/26 09:05:25;;;;;;;6.45;1.40;;;25.00;92.60;;;;;;5051666;28;20032;-43
2022/09/26 09:07:54;;;;;;;2.45;1.08;;;23.90;94.00;;;;;;5052016;28;20028;-46
2022/09/26 09:10:44;;;;;;;7.72;1.50;;;23.30;95.20;;;;;;5051791;28;20481;-45
2022/09/26 09:13:20;;;;;;;5.47;1.48;;;23.80;94.20;;;;;;5045055;28;20045;-43
2022/09/26 09:16:07;;;;;;;5.53;1.65;;;23.80;95.00;;;;;;5050735;28;20079;-49
2022/09/26 09:19:03;;;;;;;6.45;1.90;;;24.60;93.30;;;;;;5051763;28;20036;-46
2022/09/26 09:21:50;;;;;;;5.38;1.58;;;24.70;92.60;;;;;;5051425;28;20150;-47
2022/09/26 09:24:38;;;;;;;5.78;1.70;;;24.70;92.10;;;;;;5049810;28;20033;-45
2022/09/26 09:27:18;;;;;;;12.52;2.17;;;23.90;92.70;;;;;;5050547;28;20025;-43
2022/09/26 09:30:24;;;;;;;8.88;1.95;;;23.20;92.80;;;;;;5051364;28;20457;-48
2022/09/26 09:32:53;;;;;;;8.80;1.73;;;22.50;93.90;;;;;;5039007;28;20090;-50
2022/09/26 09:35:37;;;;;;;9.00;2.10;;;22.20;95.10;;;;;;5051139;28;20036;-48
2022/09/26 09:38:06;;;;;;;6.80;1.77;;;22.50;96.20;;;;;;5050187;28;20360;-44
2022/09/26 09:40:38;;;;;;;;;;;24.20;93.30;;;;;;5051334;28;20052;-45
2022/09/26 09:43:13;;;;;;;7.60;2.10;;;25.90;91.40;;;;;;5046597;28;19908;-47
2022/09/26 09:45:49;;;;;;;6.95;1.65;;;27.20;90.50;;;;;;5044951;28;20029;-51
2022/09/26 09:48:15;;;;;;;7.50;1.88;;;27.80;84.30;;;;;;5047595;28;20365;-44
2022/09/26 09:50:59;;;;;;;8.20;1.85;;;28.90;83.90;;;;;;5050658;28;20044;-47
2022/09/26 09:53:44;;;;;;;9.80;2.08;;;29.30;74.90;;;;;;5050981;28;20100;-44
2022/09/26 09:56:35;;;;;;;8.43;2.10;;;29.80;78.00;;;;;;5047175;28;20507;-43
2022/09/26 09:59:21;;;;;;;9.07;2.03;;;30.10;72.80;;;;;;5039937;28;20435;-46
2022/09/26 10:01:58;;;;;;;9.27;2.08;;;30.60;73.60;;;;;;5050408;28;20033;-46
2022/09/26 10:04:45;;;;;;;10.30;2.28;;;29.20;67.90;;;;;;5050363;28;20052;-43
2022/09/26 10:07:11;;;;;;;8.57;2.00;;;28.90;71.30;;;;;;5049566;28;20496;-50
2022/09/26 10:09:42;;;;;;;8.23;2.00;;;27.70;74.40;;;;;;5050508;28;20033;-44
2022/09/26 10:12:21;;;;;;;9.85;2.13;;;26.20;75.80;;;;;;5050453;28;20075;-62
2022/09/26 10:14:58;;;;;;;9.65;2.30;;;24.00;77.50;;;;;;5045568;28;20032;-63
2022/09/26 10:17:24;;;;;;;11.27;2.10;;;22.70;82.50;;;;;;5050233;28;20034;-46
2022/09/26 10:19:50;;;;;;;10.30;2.22;;;22.60;88.40;;;;;;5051602;28;20066;-47
2022/09/26 10:22:36;;;;;;;11.15;2.38;;;23.80;85.40;;;;;;5053370;28;20047;-46
2022/09/26 10:25:14;;;;;;;11.93;2.67;;;23.90;81.70;;;;;;5052724;28;20039;-47
2022/09/26 10:27:46;;;;;;;16.10;2.92;;;23.70;88.10;;;;;;5059843;28;20371;-46
2022/09/26 10:30:18;;;;;;;13.18;3.05;;;24.00;83.10;;;;;;5050258;28;20029;-45
2022/09/26 10:32:53;;;;;;;10.80;2.85;;;25.50;80.60;;;;;;5050540;28;20106;-50
2022/09/26 10:35:23;;;;;;;15.30;3.17;;;26.90;76.00;;;;;;5046092;28;20095;-45
2022/09/26 10:37:57;;;;;;;13.82;3.13;;;27.80;73.20;;;;;;5046583;28;20029;-45
2022/09/26 10:40:47;;;;;;;13.13;3.33;;;27.90;71.50;;;;;;5046166;28;20514;-45
2022/09/26 10:43:32;;;;;;;15.80;3.40;;;27.70;64.20;;;;;;5045689;28;20036;-47
2022/09/26 10:46:13;;;;;;;11.48;3.38;;;27.20;66.20;;;;;;5049668;28;20032;-42
2022/09/26 10:48:46;;;;;;;15.98;3.67;;;26.90;68.40;;;;;;5048729;28;20048;-44
2022/09/26 10:51:38;;;;;;;14.45;3.55;;;26.10;71.50;;;;;;5049232;28;20029;-45
2022/09/26 10:54:11;;;;;;;11.63;2.53;;;25.10;70.10;;;;;;5047352;28;20048;-45
2022/09/26 10:56:45;;;;;;;13.68;2.78;;;23.10;73.30;;;;;;5049212;28;20044;-43
2022/09/26 10:59:14;;;;;;;11.98;2.60;;;22.80;74.50;;;;;;5051063;28;20387;-45
2022/09/26 11:01:47;;;;;;;13.85;3.22;;;21.70;79.00;;;;;;5051403;28;20579;-48
2022/09/26 11:05:55;;;;;;;16.38;2.78;;;21.40;87.00;;;;;;5052528;28;20029;-46
2022/09/26 11:07:08;;;;;;;11.95;3.03;;;22.00;89.80;;;;;;5050244;28;20033;-48
2022/09/26 11:09:37;;;;;;;13.95;2.78;;;22.60;79.80;;;;;;5051923;28;20861;-53
2022/09/26 11:12:22;;;;;;;11.05;2.35;;;22.50;79.90;;;;;;5052057;28;20025;-50
2022/09/26 11:14:55;;;;;;;12.13;2.97;;;22.00;80.30;;;;;;5050729;28;20037;-50
2022/09/26 11:17:21;;;;;;;11.23;2.80;;;21.20;81.30;;;;;;5053965;28;20037;-47
2022/09/26 11:19:57;;;;;;;9.88;2.83;;;20.60;83.80;;;;;;5053422;28;20025;-47
2022/09/26 11:22:39;;;;;;;11.52;2.72;;;21.20;88.20;;;;;;5052734;28;20025;-51
2022/09/26 11:25:24;;;;;;;11.80;2.88;;;21.30;83.10;;;;;;5049510;28;20029;-47
2022/09/26 11:27:58;;;;;;;17.38;3.83;;;21.20;86.40;;;;;;5052192;28;20021;-49
2022/09/26 11:30:26;;;;;;;11.10;2.90;;;21.30;90.30;;;;;;5051864;28;20017;-45
2022/09/26 11:32:55;;;;;;;10.67;3.00;;;21.70;83.20;;;;;;5043006;28;20033;-45
2022/09/26 11:35:58;;;;;;;15.30;2.65;;;22.10;82.60;;;;;;5048034;28;20385;-43
2022/09/26 11:38:45;;;;;;;9.38;2.55;;;22.70;81.60;;;;;;5047331;28;20075;-47
2022/09/26 11:41:42;;;;;;;9.02;2.40;;;22.50;76.10;;;;;;5048448;28;20125;-43
2022/09/26 11:44:47;;;;;;;11.18;2.35;;;21.20;78.90;;;;;;5050568;28;20028;-44
2022/09/26 11:47:35;;;;;;;14.15;2.42;;;20.20;81.70;;;;;;5044418;28;20025;-45
2022/09/26 11:50:17;;;;;;;12.07;2.53;;;19.50;85.50;;;;;;5049599;28;20048;-46
2022/09/26 11:53:27;;;;;;;14.63;2.40;;;19.10;88.10;;;;;;5051097;28;20037;-45
2022/09/26 11:56:07;;;;;;;15.55;3.17;;;19.30;92.20;;;;;;5028083;28;20079;-47
2022/09/26 11:58:59;;;;;;;19.13;2.22;;;20.10;90.00;;;;;;5049793;28;20031;-42
2022/09/26 12:01:54;;;;;;;17.58;2.67;;;20.00;86.70;;;;;;5051897;28;20388;-43
2022/09/26 12:04:44;;;;;;;13.90;2.92;;;19.50;91.00;;;;;;5051519;28;20021;-46
2022/09/26 12:07:22;;;;;;;15.57;2.28;;;19.20;91.00;;;;;;5034326;28;20029;-43
2022/09/26 12:10:13;;;;;;;10.77;2.33;;;18.90;92.20;;;;;;5039608;28;20049;-47
2022/09/26 12:12:50;;;;;;;14.32;2.75;;;18.60;93.20;;;;;;5046665;28;20052;-46
2022/09/26 12:15:22;;;;;;;15.57;2.67;;;18.30;92.30;;;;;;5051090;28;20033;-47
2022/09/26 12:18:04;;;;;;;14.32;2.97;;;18.00;91.90;;;;;;5055036;28;20399;-43
2022/09/26 12:20:52;;;;;;;13.13;1.98;;;17.70;94.00;;;;;;5055180;28;20029;-45
2022/09/26 12:23:40;;;;;;;13.05;2.55;;;17.70;95.00;;;;;;5050265;28;20057;-47
2022/09/26 12:26:13;;;;;;;12.80;2.40;;;17.60;94.30;;;;;;5050627;28;20064;-47
2022/09/26 12:29:00;;;;;;;12.50;2.50;;;17.70;94.30;;;;;;5069906;28;20021;-43
2022/09/26 12:31:40;;;;;;;8.65;1.73;;;17.80;94.00;;;;;;5054750;28;20056;-50
2022/09/26 12:34:27;;;;;;;7.22;1.35;;;17.70;93.20;;;;;;5050984;28;20102;-47
2022/09/26 12:37:22;;;;;;;9.10;1.98;;;17.40;92.30;;;;;;5052473;28;20045;-46
2022/09/26 12:40:16;;;;;;;10.95;3.22;;;17.50;94.90;;;;;;5047147;28;20499;-50
2022/09/26 12:43:03;;;;;;;20.52;9.85;;;17.60;94.60;;;;;;5051463;28;20017;-46
2022/09/26 12:45:52;;;;;;;9.98;3.38;;;17.80;94.60;;;;;;5048540;28;20033;-44
2022/09/26 12:48:50;;;;;;;10.32;1.83;;;17.90;93.80;;;;;;5049107;28;20079;-45
2022/09/26 12:51:46;;;;;;;11.35;3.67;;;18.00;93.60;;;;;;5050166;28;20071;-45
2022/09/26 12:54:23;;;;;;;6.13;2.50;;;17.90;94.80;;;;;;5048036;28;20471;-47
2022/09/26 12:57:07;;;;;;;10.73;2.20;;;17.50;93.90;;;;;;5051498;28;20033;-45
2022/09/26 12:59:58;;;;;;;10.18;3.65;;;16.90;97.20;;;;;;5051023;28;20432;-47
2022/09/26 13:02:33;;;;;;;8.45;2.92;;;16.50;99.40;;;;;;5042555;28;20021;-47
2022/09/26 13:05:02;;;;;;;7.50;1.77;;;16.20;99.90;;;;;;5044848;28;20060;-47
2022/09/26 13:08:02;;;;;;;8.02;3.03;;;16.10;99.90;;;;;;5052128;28;20029;-48
2022/09/26 13:10:40;;;;;;;6.28;2.35;;;16.30;99.90;;;;;;5049352;28;20387;-51
2022/09/26 13:13:22;;;;;;;9.45;3.33;;;16.30;99.90;;;;;;5049252;28;20476;-49
2022/09/26 13:16:11;;;;;;;7.75;1.80;;;16.90;99.90;;;;;;5051412;28;20115;-50
2022/09/26 13:18:44;;;;;;;4.47;1.50;;;17.30;99.90;;;;;;5051194;28;20045;-45
2022/09/26 13:21:18;;;;;;;6.40;2.35;;;17.40;99.90;;;;;;5036459;28;20028;-50
2022/09/26 13:24:02;;;;;;;3.95;0.88;;;17.40;99.90;;;;;;5047509;28;20572;-45
2022/09/26 13:26:34;;;;;;;5.43;1.10;;;17.30;99.90;;;;;;5047880;28;20783;-49
2022/09/26 13:29:08;;;;;;;4.15;1.00;;;17.60;99.90;;;;;;5049584;28;20075;-42